createdAt,value
2019-03-31T00:04:59.113Z,53.81
2019-03-31T00:10:04.022Z,54.13
2019-03-31T00:15:09.228Z,54.24
2019-03-31T00:20:14.507Z,54.85
2019-03-31T00:25:19.301Z,54.94
2019-03-31T00:30:24.557Z,54.93
2019-03-31T00:35:29.313Z,54.77
2019-03-31T00:40:34.106Z,55.30
2019-03-31T00:45:39.049Z,55.32
2019-03-31T00:50:43.830Z,55.02
2019-03-31T00:55:48.600Z,54.90
2019-03-31T01:01:13.710Z,54.84
2019-03-31T01:06:20.631Z,54.94
2019-03-31T01:11:27.004Z,55.14
2019-03-31T01:16:33.394Z,55.41
2019-03-31T01:21:38.161Z,55.71
2019-03-31T01:26:43.290Z,56.26
2019-03-31T01:31:50.501Z,56.53
2019-03-31T01:36:55.126Z,57.03
2019-03-31T01:42:00.054Z,57.77
2019-03-31T01:47:06.782Z,58.05
2019-03-31T01:52:11.922Z,58.54
2019-03-31T01:57:16.786Z,59.09
2019-03-31T02:02:27.462Z,59.85
2019-03-31T02:07:32.232Z,60.00
2019-03-31T02:12:37.231Z,60.62
2019-03-31T02:17:42.044Z,60.89
2019-03-31T02:22:46.924Z,61.45
2019-03-31T02:27:51.845Z,61.35
2019-03-31T02:32:56.742Z,61.81
2019-03-31T02:38:01.673Z,62.44
2019-03-31T02:43:06.490Z,62.80
2019-03-31T02:48:11.876Z,63.02
2019-03-31T02:53:18.500Z,63.38
2019-03-31T02:58:23.280Z,63.64
2019-03-31T03:03:30.571Z,63.78
2019-03-31T03:08:37.061Z,63.72
2019-03-31T03:13:43.660Z,63.73
2019-03-31T03:18:49.308Z,63.54
2019-03-31T03:23:54.097Z,63.92
2019-03-31T03:28:58.911Z,64.10
2019-03-31T03:34:03.727Z,64.38
2019-03-31T03:39:09.237Z,64.39
2019-03-31T03:44:14.340Z,64.52
2019-03-31T03:49:19.402Z,64.41
2019-03-31T03:54:24.244Z,64.61
2019-03-31T03:59:29.040Z,65.09
2019-03-31T04:04:33.788Z,65.45
2019-03-31T04:09:38.568Z,65.66
2019-03-31T04:14:43.349Z,66.26
2019-03-31T04:19:48.108Z,66.52
2019-03-31T04:24:53.728Z,66.93
2019-03-31T04:29:58.516Z,67.61
2019-03-31T04:35:03.308Z,68.19
2019-03-31T04:40:08.208Z,67.90
2019-03-31T04:45:12.982Z,68.13
2019-03-31T04:50:18.081Z,68.89
2019-03-31T04:55:22.903Z,69.27
2019-03-31T05:00:27.683Z,69.30
2019-03-31T05:05:32.566Z,69.84
2019-03-31T05:10:37.676Z,70.01
2019-03-31T05:15:42.455Z,70.56
2019-03-31T05:20:47.237Z,70.29
2019-03-31T05:25:52.117Z,69.72
2019-03-31T05:30:56.980Z,69.41
2019-03-31T05:36:01.751Z,69.80
2019-03-31T05:41:06.887Z,70.52
2019-03-31T05:46:11.834Z,70.93
2019-03-31T05:51:16.604Z,70.66
2019-03-31T05:56:21.420Z,70.61
2019-03-31T06:01:26.222Z,71.12
2019-03-31T06:06:31.087Z,70.21
2019-03-31T06:11:35.952Z,69.86
2019-03-31T06:16:40.683Z,70.30
2019-03-31T06:21:45.550Z,69.70
2019-03-31T06:26:50.316Z,69.07
2019-03-31T06:31:55.079Z,67.55
2019-03-31T06:36:59.857Z,68.25
2019-03-31T06:42:04.635Z,67.36
2019-03-31T06:47:09.518Z,67.23
2019-03-31T06:52:14.287Z,66.01
2019-03-31T06:57:19.046Z,65.93
2019-03-31T07:02:23.811Z,67.08
2019-03-31T07:07:28.680Z,65.88
2019-03-31T07:12:33.550Z,64.35
2019-03-31T07:17:38.552Z,64.94
2019-03-31T07:22:43.302Z,63.83
2019-03-31T07:27:48.208Z,62.89
2019-03-31T07:32:52.972Z,61.80
2019-03-31T07:37:58.096Z,61.18
2019-03-31T07:43:03.342Z,61.99
2019-03-31T07:48:08.405Z,61.80
2019-03-31T07:53:13.169Z,61.05
2019-03-31T07:58:17.954Z,60.31
2019-03-31T08:03:27.909Z,61.35
2019-03-31T08:08:32.676Z,63.27
2019-03-31T08:13:39.229Z,63.02
2019-03-31T08:18:47.172Z,63.33
2019-03-31T08:23:52.539Z,63.20
2019-03-31T08:28:58.664Z,62.13
2019-03-31T08:34:03.816Z,61.72
2019-03-31T08:39:09.750Z,58.81
2019-03-31T08:44:14.519Z,57.31
2019-03-31T08:49:19.292Z,57.95
2019-03-31T08:54:24.069Z,58.97
2019-03-31T08:59:28.830Z,57.91
2019-03-31T09:04:35.943Z,55.93
2019-03-31T09:09:40.455Z,55.94
2019-03-31T09:14:45.239Z,56.80
2019-03-31T09:19:50.337Z,56.86
2019-03-31T09:24:55.124Z,58.42
2019-03-31T09:29:59.934Z,57.76
2019-03-31T09:35:05.337Z,59.24
2019-03-31T09:40:11.978Z,59.10
2019-03-31T09:45:19.208Z,60.77
2019-03-31T09:50:23.958Z,59.92
2019-03-31T09:55:28.768Z,61.38
2019-03-31T10:00:48.147Z,59.81
2019-03-31T10:05:53.062Z,59.00
2019-03-31T10:10:57.980Z,60.46
2019-03-31T10:16:03.021Z,59.35
2019-03-31T10:21:07.971Z,58.65
2019-03-31T10:26:15.972Z,57.99
2019-03-31T10:31:19.560Z,57.01
2019-03-31T10:36:24.510Z,54.14
2019-03-31T10:41:31.097Z,51.87
2019-03-31T10:46:35.911Z,53.75
2019-03-31T10:51:41.190Z,54.24
2019-03-31T10:56:46.038Z,54.26
2019-03-31T11:01:50.812Z,53.40
2019-03-31T11:06:59.583Z,48.01
2019-03-31T11:12:02.652Z,44.23
2019-03-31T11:17:07.880Z,39.94
2019-03-31T11:22:37.741Z,36.06
2019-03-31T11:27:43.976Z,37.30
2019-03-31T11:32:48.882Z,38.48
2019-03-31T11:37:53.658Z,41.32
2019-03-31T11:42:58.453Z,42.88
2019-03-31T11:48:03.216Z,44.15
2019-03-31T11:53:08.010Z,45.20
2019-03-31T11:58:12.833Z,43.57
2019-03-31T12:03:17.738Z,42.59
2019-03-31T12:08:22.551Z,36.78
2019-03-31T12:13:27.333Z,36.32
2019-03-31T12:18:32.113Z,32.85
2019-03-31T12:23:37.011Z,32.73
2019-03-31T12:28:41.794Z,28.75
2019-03-31T12:33:46.594Z,27.42
2019-03-31T12:38:53.886Z,27.31
2019-03-31T12:43:58.247Z,23.97
2019-03-31T12:49:03.032Z,26.65
2019-03-31T12:54:07.815Z,29.97
2019-03-31T12:59:12.594Z,30.24
2019-03-31T13:04:17.368Z,30.94
2019-03-31T13:09:22.154Z,29.79
2019-03-31T13:14:27.021Z,26.11
2019-03-31T13:19:31.817Z,25.99
2019-03-31T13:24:36.590Z,27.14
2019-03-31T13:29:41.601Z,28.33
2019-03-31T13:34:46.420Z,27.24
2019-03-31T13:39:51.186Z,27.81
2019-03-31T13:44:55.980Z,28.17
2019-03-31T13:50:00.758Z,27.89
2019-03-31T13:55:06.022Z,29.13
2019-03-31T14:00:12.471Z,26.26
2019-03-31T14:05:18.034Z,26.37
2019-03-31T14:10:24.218Z,26.98
2019-03-31T14:15:28.986Z,27.29
2019-03-31T14:20:33.859Z,27.92
2019-03-31T14:25:38.636Z,27.79
2019-03-31T14:30:43.413Z,28.57
2019-03-31T14:35:48.205Z,28.42
2019-03-31T14:40:52.957Z,28.12
2019-03-31T14:45:57.742Z,27.26
2019-03-31T14:51:02.744Z,26.31
2019-03-31T14:56:07.552Z,26.57
2019-03-31T15:01:12.442Z,26.95
2019-03-31T15:06:17.246Z,27.95
2019-03-31T15:11:23.151Z,27.69
2019-03-31T15:16:28.216Z,27.30
2019-03-31T15:21:33.383Z,27.37
2019-03-31T15:26:38.162Z,27.54
2019-03-31T15:31:43.082Z,27.69
2019-03-31T15:36:47.895Z,27.03
2019-03-31T15:41:52.772Z,27.74
2019-03-31T15:46:57.559Z,28.14
2019-03-31T15:52:02.363Z,28.50
2019-03-31T15:57:07.147Z,28.41
2019-03-31T16:02:11.904Z,28.44
2019-03-31T16:07:16.725Z,29.63
2019-03-31T16:12:20.971Z,29.69
2019-03-31T16:17:25.258Z,29.73
2019-03-31T16:22:29.540Z,30.06
2019-03-31T16:27:33.803Z,30.47
2019-03-31T16:32:38.073Z,31.02
2019-03-31T16:37:42.307Z,31.39
2019-03-31T16:42:46.704Z,32.06
2019-03-31T16:47:50.985Z,32.46
2019-03-31T16:52:55.250Z,32.07
2019-03-31T16:57:59.802Z,31.99
2019-03-31T17:03:04.066Z,31.76
2019-03-31T17:08:08.317Z,30.68
2019-03-31T17:13:12.559Z,30.83
2019-03-31T17:18:16.841Z,30.87
2019-03-31T17:23:21.127Z,30.66
2019-03-31T17:28:25.394Z,31.24
2019-03-31T17:33:30.380Z,31.44
2019-03-31T17:38:34.797Z,31.96
2019-03-31T17:43:39.089Z,33.02
2019-03-31T17:48:43.425Z,33.94
2019-03-31T17:53:47.723Z,34.62
2019-03-31T17:58:52.044Z,35.21
2019-03-31T18:03:56.411Z,35.44
2019-03-31T18:09:00.669Z,35.67
2019-03-31T18:14:06.818Z,35.55
2019-03-31T18:19:11.233Z,35.90
2019-03-31T18:24:15.644Z,36.10
2019-03-31T18:29:20.783Z,36.49
2019-03-31T18:34:25.139Z,36.24
2019-03-31T18:39:29.745Z,37.05
2019-03-31T18:44:34.200Z,37.16
2019-03-31T18:49:39.865Z,37.16
2019-03-31T18:55:06.591Z,37.40
2019-03-31T19:00:39.690Z,37.11
2019-03-31T19:06:05.406Z,37.24
2019-03-31T19:11:32.007Z,38.05
2019-03-31T19:17:07.437Z,37.24
2019-03-31T19:22:37.105Z,37.45
2019-03-31T19:27:59.799Z,37.47
2019-03-31T19:33:23.384Z,37.50
2019-03-31T19:38:51.094Z,37.80
2019-03-31T19:44:02.779Z,37.94
2019-03-31T19:49:13.380Z,38.16
2019-03-31T19:54:35.749Z,37.92
2019-03-31T19:59:59.574Z,38.17
2019-03-31T20:05:23.100Z,38.20
2019-03-31T20:10:46.587Z,38.22
2019-03-31T20:16:08.655Z,38.36
2019-03-31T20:21:31.388Z,38.94
2019-03-31T20:26:42.998Z,38.74
2019-03-31T20:32:02.732Z,39.10
2019-03-31T20:37:32.172Z,39.39
2019-03-31T20:42:58.310Z,39.44
2019-03-31T20:48:02.602Z,39.55
2019-03-31T20:53:06.900Z,39.87
2019-03-31T20:58:11.423Z,39.85
2019-03-31T21:03:15.870Z,40.40
2019-03-31T21:08:20.283Z,40.44
2019-03-31T21:13:24.636Z,40.23
2019-03-31T21:18:28.904Z,40.40
2019-03-31T21:23:33.330Z,40.65
2019-03-31T21:28:37.616Z,40.80
2019-03-31T21:33:41.985Z,40.86
2019-03-31T21:38:46.225Z,40.82
2019-03-31T21:43:50.865Z,41.03
2019-03-31T21:48:55.098Z,41.22
2019-03-31T21:53:59.319Z,41.58
2019-03-31T21:59:03.546Z,41.98
2019-03-31T22:04:07.907Z,42.22
2019-03-31T22:09:12.400Z,42.53
2019-03-31T22:14:16.781Z,42.78
2019-03-31T22:19:21.217Z,43.05
2019-03-31T22:24:25.666Z,43.29
2019-03-31T22:29:30.101Z,43.72
2019-03-31T22:34:34.353Z,44.03
2019-03-31T22:39:38.565Z,43.99
2019-03-31T22:44:42.824Z,44.21
2019-03-31T22:49:47.239Z,44.45
2019-03-31T22:54:51.520Z,44.52
2019-03-31T22:59:55.738Z,44.53
2019-03-31T23:04:59.963Z,44.55
2019-03-31T23:10:04.573Z,44.98
2019-03-31T23:15:08.909Z,45.14
2019-03-31T23:20:13.135Z,45.44
2019-03-31T23:25:17.365Z,45.58
2019-03-31T23:30:21.588Z,45.92
2019-03-31T23:35:25.808Z,46.06
2019-03-31T23:40:30.044Z,46.30
2019-03-31T23:45:34.665Z,46.39
2019-03-31T23:50:38.886Z,46.62
2019-03-31T23:55:43.132Z,46.88
